sensor_id;sensor_type;location;lat;lon;timestamp;pressure;altitude;pressure_sealevel;temperature
22269;BMP280;11303;50.772;19.670;2023-09-08T00:00:25;99846.16;;;11.16
22269;BMP280;11303;50.772;19.670;2023-09-08T00:02:28;99848.75;;;11.16
22269;BMP280;11303;50.772;19.670;2023-09-08T00:04:30;99851.50;;;11.20
22269;BMP280;11303;50.772;19.670;2023-09-08T00:06:32;99847.06;;;11.20
22269;BMP280;11303;50.772;19.670;2023-09-08T00:08:33;99845.97;;;11.21
22269;BMP280;11303;50.772;19.670;2023-09-08T00:10:35;99841.66;;;11.25
22269;BMP280;11303;50.772;19.670;2023-09-08T00:12:38;99845.81;;;11.26
22269;BMP280;11303;50.772;19.670;2023-09-08T00:14:39;99848.88;;;11.28
22269;BMP280;11303;50.772;19.670;2023-09-08T00:16:41;99854.06;;;11.28
22269;BMP280;11303;50.772;19.670;2023-09-08T00:18:44;99851.47;;;11.28
22269;BMP280;11303;50.772;19.670;2023-09-08T00:20:46;99840.44;;;11.23
22269;BMP280;11303;50.772;19.670;2023-09-08T00:22:47;99848.59;;;11.21
22269;BMP280;11303;50.772;19.670;2023-09-08T00:24:49;99845.09;;;11.17
22269;BMP280;11303;50.772;19.670;2023-09-08T00:26:51;99836.25;;;11.10
22269;BMP280;11303;50.772;19.670;2023-09-08T00:28:52;99832.00;;;11.05
22269;BMP280;11303;50.772;19.670;2023-09-08T00:30:54;99838.28;;;11.04
22269;BMP280;11303;50.772;19.670;2023-09-08T00:32:56;99847.13;;;11.03
22269;BMP280;11303;50.772;19.670;2023-09-08T00:34:57;99843.16;;;11.05
22269;BMP280;11303;50.772;19.670;2023-09-08T00:36:59;99837.03;;;11.01
22269;BMP280;11303;50.772;19.670;2023-09-08T00:39:06;99838.88;;;11.01
22269;BMP280;11303;50.772;19.670;2023-09-08T00:41:07;99838.13;;;11.00
22269;BMP280;11303;50.772;19.670;2023-09-08T00:43:09;99837.66;;;10.98
22269;BMP280;11303;50.772;19.670;2023-09-08T00:45:11;99837.09;;;10.93
22269;BMP280;11303;50.772;19.670;2023-09-08T00:47:13;99832.19;;;10.91
22269;BMP280;11303;50.772;19.670;2023-09-08T00:49:14;99824.25;;;10.87
22269;BMP280;11303;50.772;19.670;2023-09-08T00:51:16;99837.88;;;10.84
22269;BMP280;11303;50.772;19.670;2023-09-08T00:53:18;99836.66;;;10.82
22269;BMP280;11303;50.772;19.670;2023-09-08T00:55:19;99833.03;;;10.74
22269;BMP280;11303;50.772;19.670;2023-09-08T00:57:21;99837.34;;;10.70
22269;BMP280;11303;50.772;19.670;2023-09-08T00:59:23;99836.41;;;10.66
22269;BMP280;11303;50.772;19.670;2023-09-08T01:01:26;99839.94;;;10.61
22269;BMP280;11303;50.772;19.670;2023-09-08T01:03:27;99840.88;;;10.57
22269;BMP280;11303;50.772;19.670;2023-09-08T01:05:29;99843.81;;;10.55
22269;BMP280;11303;50.772;19.670;2023-09-08T01:07:32;99845.81;;;10.49
22269;BMP280;11303;50.772;19.670;2023-09-08T01:09:34;99843.38;;;10.44
22269;BMP280;11303;50.772;19.670;2023-09-08T01:11:36;99837.59;;;10.39
22269;BMP280;11303;50.772;19.670;2023-09-08T01:13:38;99837.13;;;10.37
22269;BMP280;11303;50.772;19.670;2023-09-08T01:15:39;99837.44;;;10.35
22269;BMP280;11303;50.772;19.670;2023-09-08T01:17:41;99832.84;;;10.32
22269;BMP280;11303;50.772;19.670;2023-09-08T01:19:44;99841.59;;;10.27
22269;BMP280;11303;50.772;19.670;2023-09-08T01:25:04;99829.19;;;10.16
22269;BMP280;11303;50.772;19.670;2023-09-08T01:27:09;99830.25;;;10.15
22269;BMP280;11303;50.772;19.670;2023-09-08T01:29:15;99833.34;;;10.17
22269;BMP280;11303;50.772;19.670;2023-09-08T01:31:17;99830.44;;;10.18
22269;BMP280;11303;50.772;19.670;2023-09-08T01:33:20;99833.47;;;10.20
22269;BMP280;11303;50.772;19.670;2023-09-08T01:35:23;99837.13;;;10.19
22269;BMP280;11303;50.772;19.670;2023-09-08T01:37:26;99836.69;;;10.17
22269;BMP280;11303;50.772;19.670;2023-09-08T01:39:27;99831.03;;;10.15
22269;BMP280;11303;50.772;19.670;2023-09-08T01:41:30;99831.66;;;10.12
22269;BMP280;11303;50.772;19.670;2023-09-08T01:43:33;99829.97;;;10.07
22269;BMP280;11303;50.772;19.670;2023-09-08T01:45:35;99836.88;;;10.03
22269;BMP280;11303;50.772;19.670;2023-09-08T01:47:37;99839.47;;;10.03
22269;BMP280;11303;50.772;19.670;2023-09-08T01:49:39;99833.94;;;10.05
22269;BMP280;11303;50.772;19.670;2023-09-08T01:51:41;99838.81;;;10.06
22269;BMP280;11303;50.772;19.670;2023-09-08T01:53:42;99831.34;;;10.05
22269;BMP280;11303;50.772;19.670;2023-09-08T01:55:44;99834.25;;;10.03
22269;BMP280;11303;50.772;19.670;2023-09-08T01:57:46;99845.25;;;10.00
22269;BMP280;11303;50.772;19.670;2023-09-08T01:59:48;99833.03;;;10.01
22269;BMP280;11303;50.772;19.670;2023-09-08T02:01:50;99831.22;;;10.01
22269;BMP280;11303;50.772;19.670;2023-09-08T02:03:51;99830.72;;;9.99
22269;BMP280;11303;50.772;19.670;2023-09-08T02:05:53;99831.50;;;10.00
22269;BMP280;11303;50.772;19.670;2023-09-08T02:07:55;99836.53;;;10.05
22269;BMP280;11303;50.772;19.670;2023-09-08T02:09:58;99824.28;;;10.05
22269;BMP280;11303;50.772;19.670;2023-09-08T02:12:00;99826.91;;;10.05
22269;BMP280;11303;50.772;19.670;2023-09-08T02:14:02;99823.25;;;10.06
22269;BMP280;11303;50.772;19.670;2023-09-08T02:16:03;99826.47;;;10.03
22269;BMP280;11303;50.772;19.670;2023-09-08T02:18:07;99835.78;;;9.96
22269;BMP280;11303;50.772;19.670;2023-09-08T02:20:09;99823.88;;;9.86
22269;BMP280;11303;50.772;19.670;2023-09-08T02:22:11;99836.53;;;9.79
22269;BMP280;11303;50.772;19.670;2023-09-08T02:24:13;99825.81;;;9.71
22269;BMP280;11303;50.772;19.670;2023-09-08T02:26:15;99826.47;;;9.68
22269;BMP280;11303;50.772;19.670;2023-09-08T02:28:16;99825.25;;;9.66
22269;BMP280;11303;50.772;19.670;2023-09-08T02:30:18;99829.19;;;9.63
22269;BMP280;11303;50.772;19.670;2023-09-08T02:32:20;99826.59;;;9.63
22269;BMP280;11303;50.772;19.670;2023-09-08T02:34:21;99817.56;;;9.61
22269;BMP280;11303;50.772;19.670;2023-09-08T02:36:23;99809.94;;;9.56
22269;BMP280;11303;50.772;19.670;2023-09-08T02:38:28;99816.97;;;9.55
22269;BMP280;11303;50.772;19.670;2023-09-08T02:40:29;99818.63;;;9.51
22269;BMP280;11303;50.772;19.670;2023-09-08T02:42:31;99810.84;;;9.51
22269;BMP280;11303;50.772;19.670;2023-09-08T02:44:33;99821.97;;;9.51
22269;BMP280;11303;50.772;19.670;2023-09-08T02:46:34;99826.00;;;9.49
22269;BMP280;11303;50.772;19.670;2023-09-08T02:48:36;99813.91;;;9.44
22269;BMP280;11303;50.772;19.670;2023-09-08T02:50:38;99817.56;;;9.43
22269;BMP280;11303;50.772;19.670;2023-09-08T02:52:39;99822.91;;;9.47
22269;BMP280;11303;50.772;19.670;2023-09-08T02:54:41;99816.78;;;9.43
22269;BMP280;11303;50.772;19.670;2023-09-08T02:56:43;99820.91;;;9.44
22269;BMP280;11303;50.772;19.670;2023-09-08T02:58:44;99818.78;;;9.46
22269;BMP280;11303;50.772;19.670;2023-09-08T03:00:46;99820.59;;;9.45
22269;BMP280;11303;50.772;19.670;2023-09-08T03:02:48;99812.66;;;9.42
22269;BMP280;11303;50.772;19.670;2023-09-08T03:04:50;99818.94;;;9.41
22269;BMP280;11303;50.772;19.670;2023-09-08T03:06:51;99824.41;;;9.39
22269;BMP280;11303;50.772;19.670;2023-09-08T03:08:53;99816.19;;;9.37
22269;BMP280;11303;50.772;19.670;2023-09-08T03:10:56;99817.06;;;9.32
22269;BMP280;11303;50.772;19.670;2023-09-08T03:12:58;99810.50;;;9.26
22269;BMP280;11303;50.772;19.670;2023-09-08T03:15:01;99820.88;;;9.26
22269;BMP280;11303;50.772;19.670;2023-09-08T03:17:03;99817.81;;;9.24
22269;BMP280;11303;50.772;19.670;2023-09-08T03:19:05;99817.69;;;9.21
22269;BMP280;11303;50.772;19.670;2023-09-08T03:21:06;99806.66;;;9.15
22269;BMP280;11303;50.772;19.670;2023-09-08T03:23:11;99810.94;;;9.11
22269;BMP280;11303;50.772;19.670;2023-09-08T03:25:14;99803.44;;;9.09
22269;BMP280;11303;50.772;19.670;2023-09-08T03:27:16;99808.63;;;9.09
22269;BMP280;11303;50.772;19.670;2023-09-08T03:29:18;99811.72;;;9.11
22269;BMP280;11303;50.772;19.670;2023-09-08T03:31:19;99802.38;;;9.10
22269;BMP280;11303;50.772;19.670;2023-09-08T03:33:21;99812.31;;;9.08
22269;BMP280;11303;50.772;19.670;2023-09-08T03:35:23;99810.47;;;9.09
22269;BMP280;11303;50.772;19.670;2023-09-08T03:37:24;99815.34;;;9.10
22269;BMP280;11303;50.772;19.670;2023-09-08T03:39:27;99813.50;;;9.11
22269;BMP280;11303;50.772;19.670;2023-09-08T03:41:29;99810.94;;;9.11
22269;BMP280;11303;50.772;19.670;2023-09-08T03:43:30;99813.22;;;9.12
22269;BMP280;11303;50.772;19.670;2023-09-08T03:45:32;99799.50;;;9.12
22269;BMP280;11303;50.772;19.670;2023-09-08T03:47:34;99801.63;;;9.10
22269;BMP280;11303;50.772;19.670;2023-09-08T03:49:36;99807.88;;;9.09
22269;BMP280;11303;50.772;19.670;2023-09-08T03:51:37;99808.16;;;9.07
22269;BMP280;11303;50.772;19.670;2023-09-08T03:53:39;99800.69;;;9.06
22269;BMP280;11303;50.772;19.670;2023-09-08T03:55:41;99806.31;;;9.08
22269;BMP280;11303;50.772;19.670;2023-09-08T03:57:42;99807.88;;;9.09
22269;BMP280;11303;50.772;19.670;2023-09-08T03:59:44;99808.47;;;9.06
22269;BMP280;11303;50.772;19.670;2023-09-08T04:01:45;99805.72;;;9.02
22269;BMP280;11303;50.772;19.670;2023-09-08T04:03:47;99800.53;;;9.02
22269;BMP280;11303;50.772;19.670;2023-09-08T04:05:49;99805.41;;;9.04
22269;BMP280;11303;50.772;19.670;2023-09-08T04:07:50;99802.81;;;9.04
22269;BMP280;11303;50.772;19.670;2023-09-08T04:09:52;99799.44;;;9.03
22269;BMP280;11303;50.772;19.670;2023-09-08T04:11:54;99808.91;;;9.08
22269;BMP280;11303;50.772;19.670;2023-09-08T04:13:56;99809.41;;;9.10
22269;BMP280;11303;50.772;19.670;2023-09-08T04:15:58;99809.41;;;9.10
22269;BMP280;11303;50.772;19.670;2023-09-08T04:17:59;99804.81;;;9.16
22269;BMP280;11303;50.772;19.670;2023-09-08T04:20:03;99811.25;;;9.18
22269;BMP280;11303;50.772;19.670;2023-09-08T04:22:06;99796.94;;;9.21
22269;BMP280;11303;50.772;19.670;2023-09-08T04:24:08;99803.16;;;9.28
22269;BMP280;11303;50.772;19.670;2023-09-08T04:26:12;99810.81;;;9.42
22269;BMP280;11303;50.772;19.670;2023-09-08T04:28:14;99807.50;;;9.59
22269;BMP280;11303;50.772;19.670;2023-09-08T04:30:16;99796.22;;;9.81
22269;BMP280;11303;50.772;19.670;2023-09-08T04:32:19;99806.44;;;10.04
22269;BMP280;11303;50.772;19.670;2023-09-08T04:34:21;99807.59;;;10.33
22269;BMP280;11303;50.772;19.670;2023-09-08T04:36:22;99805.97;;;10.66
22269;BMP280;11303;50.772;19.670;2023-09-08T04:38:24;99810.28;;;10.92
22269;BMP280;11303;50.772;19.670;2023-09-08T04:40:26;99811.50;;;11.24
22269;BMP280;11303;50.772;19.670;2023-09-08T04:42:28;99808.25;;;11.57
22269;BMP280;11303;50.772;19.670;2023-09-08T04:44:30;99797.25;;;11.85
22269;BMP280;11303;50.772;19.670;2023-09-08T04:46:31;99806.25;;;12.09
22269;BMP280;11303;50.772;19.670;2023-09-08T04:48:33;99800.94;;;12.42
22269;BMP280;11303;50.772;19.670;2023-09-08T04:50:36;99803.72;;;12.82
22269;BMP280;11303;50.772;19.670;2023-09-08T04:52:37;99810.28;;;13.17
22269;BMP280;11303;50.772;19.670;2023-09-08T04:54:39;99800.53;;;13.58
22269;BMP280;11303;50.772;19.670;2023-09-08T04:56:41;99799.94;;;13.77
22269;BMP280;11303;50.772;19.670;2023-09-08T04:58:43;99807.22;;;13.99
22269;BMP280;11303;50.772;19.670;2023-09-08T05:00:44;99804.00;;;14.22
22269;BMP280;11303;50.772;19.670;2023-09-08T05:02:46;99805.00;;;14.49
22269;BMP280;11303;50.772;19.670;2023-09-08T05:04:48;99806.59;;;15.05
22269;BMP280;11303;50.772;19.670;2023-09-08T05:06:50;99812.63;;;15.48
22269;BMP280;11303;50.772;19.670;2023-09-08T05:08:51;99804.78;;;15.71
22269;BMP280;11303;50.772;19.670;2023-09-08T05:10:53;99805.94;;;15.97
22269;BMP280;11303;50.772;19.670;2023-09-08T05:12:54;99805.53;;;16.18
22269;BMP280;11303;50.772;19.670;2023-09-08T05:14:56;99811.13;;;16.43
22269;BMP280;11303;50.772;19.670;2023-09-08T05:17:01;99805.44;;;16.67
22269;BMP280;11303;50.772;19.670;2023-09-08T05:19:03;99791.91;;;16.92
22269;BMP280;11303;50.772;19.670;2023-09-08T05:21:06;99798.34;;;17.35
22269;BMP280;11303;50.772;19.670;2023-09-08T05:23:08;99800.50;;;17.67
22269;BMP280;11303;50.772;19.670;2023-09-08T05:25:09;99796.44;;;17.73
22269;BMP280;11303;50.772;19.670;2023-09-08T05:27:12;99797.09;;;18.15
22269;BMP280;11303;50.772;19.670;2023-09-08T05:29:13;99794.09;;;18.16
22269;BMP280;11303;50.772;19.670;2023-09-08T05:31:15;99800.28;;;18.49
22269;BMP280;11303;50.772;19.670;2023-09-08T05:33:17;99790.84;;;18.48
22269;BMP280;11303;50.772;19.670;2023-09-08T05:35:18;99799.13;;;18.50
22269;BMP280;11303;50.772;19.670;2023-09-08T05:37:20;99790.66;;;18.89
22269;BMP280;11303;50.772;19.670;2023-09-08T05:39:22;99785.41;;;19.04
22269;BMP280;11303;50.772;19.670;2023-09-08T05:41:24;99791.81;;;19.24
22269;BMP280;11303;50.772;19.670;2023-09-08T05:43:26;99794.09;;;19.54
22269;BMP280;11303;50.772;19.670;2023-09-08T05:45:27;99800.47;;;19.89
22269;BMP280;11303;50.772;19.670;2023-09-08T05:47:29;99802.69;;;20.08
22269;BMP280;11303;50.772;19.670;2023-09-08T05:49:31;99792.47;;;20.28
22269;BMP280;11303;50.772;19.670;2023-09-08T05:51:34;99794.69;;;20.34
22269;BMP280;11303;50.772;19.670;2023-09-08T05:53:36;99804.31;;;20.83
22269;BMP280;11303;50.772;19.670;2023-09-08T05:55:40;99791.44;;;20.92
22269;BMP280;11303;50.772;19.670;2023-09-08T05:57:42;99790.06;;;21.22
22269;BMP280;11303;50.772;19.670;2023-09-08T05:59:44;99794.78;;;21.45
22269;BMP280;11303;50.772;19.670;2023-09-08T06:01:45;99782.56;;;21.58
22269;BMP280;11303;50.772;19.670;2023-09-08T06:03:47;99791.84;;;21.77
22269;BMP280;11303;50.772;19.670;2023-09-08T06:05:49;99786.50;;;21.40
22269;BMP280;11303;50.772;19.670;2023-09-08T06:07:51;99787.94;;;21.48
22269;BMP280;11303;50.772;19.670;2023-09-08T06:10:07;99779.13;;;21.65
22269;BMP280;11303;50.772;19.670;2023-09-08T06:12:09;99777.94;;;22.04
22269;BMP280;11303;50.772;19.670;2023-09-08T06:14:11;99772.13;;;22.47
22269;BMP280;11303;50.772;19.670;2023-09-08T06:16:13;99775.47;;;22.20
22269;BMP280;11303;50.772;19.670;2023-09-08T06:18:14;99779.53;;;21.98
22269;BMP280;11303;50.772;19.670;2023-09-08T06:20:16;99772.13;;;21.82
22269;BMP280;11303;50.772;19.670;2023-09-08T06:22:18;99773.72;;;21.72
22269;BMP280;11303;50.772;19.670;2023-09-08T06:24:19;99772.69;;;22.00
22269;BMP280;11303;50.772;19.670;2023-09-08T06:26:21;99774.22;;;22.56
22269;BMP280;11303;50.772;19.670;2023-09-08T06:28:23;99776.88;;;23.06
22269;BMP280;11303;50.772;19.670;2023-09-08T06:30:24;99782.38;;;23.19
22269;BMP280;11303;50.772;19.670;2023-09-08T06:32:26;99764.63;;;23.16
22269;BMP280;11303;50.772;19.670;2023-09-08T06:34:27;99766.91;;;23.14
22269;BMP280;11303;50.772;19.670;2023-09-08T06:36:29;99778.97;;;22.68
22269;BMP280;11303;50.772;19.670;2023-09-08T06:38:32;99773.78;;;22.34
22269;BMP280;11303;50.772;19.670;2023-09-08T06:40:34;99781.53;;;22.52
22269;BMP280;11303;50.772;19.670;2023-09-08T06:42:35;99779.34;;;22.43
22269;BMP280;11303;50.772;19.670;2023-09-08T06:44:37;99771.97;;;22.58
22269;BMP280;11303;50.772;19.670;2023-09-08T06:46:39;99772.38;;;22.53
22269;BMP280;11303;50.772;19.670;2023-09-08T06:48:41;99774.88;;;23.38
22269;BMP280;11303;50.772;19.670;2023-09-08T06:50:42;99775.00;;;24.10
22269;BMP280;11303;50.772;19.670;2023-09-08T06:52:44;99778.06;;;24.09
22269;BMP280;11303;50.772;19.670;2023-09-08T06:54:46;99779.81;;;24.15
22269;BMP280;11303;50.772;19.670;2023-09-08T06:56:48;99780.78;;;23.85
22269;BMP280;11303;50.772;19.670;2023-09-08T06:58:49;99778.16;;;23.65
22269;BMP280;11303;50.772;19.670;2023-09-08T07:00:51;99775.03;;;23.50
22269;BMP280;11303;50.772;19.670;2023-09-08T07:02:56;99777.81;;;23.63
22269;BMP280;11303;50.772;19.670;2023-09-08T07:04:58;99776.44;;;23.55
22269;BMP280;11303;50.772;19.670;2023-09-08T07:07:00;99768.91;;;23.53
22269;BMP280;11303;50.772;19.670;2023-09-08T07:09:05;99776.59;;;23.88
22269;BMP280;11303;50.772;19.670;2023-09-08T07:11:06;99775.50;;;24.21
22269;BMP280;11303;50.772;19.670;2023-09-08T07:13:08;99775.09;;;24.23
22269;BMP280;11303;50.772;19.670;2023-09-08T07:15:10;99771.66;;;24.42
22269;BMP280;11303;50.772;19.670;2023-09-08T07:17:12;99775.03;;;24.92
22269;BMP280;11303;50.772;19.670;2023-09-08T07:19:14;99773.97;;;25.48
22269;BMP280;11303;50.772;19.670;2023-09-08T07:21:15;99769.34;;;26.29
22269;BMP280;11303;50.772;19.670;2023-09-08T07:23:17;99768.06;;;26.81
22269;BMP280;11303;50.772;19.670;2023-09-08T07:25:22;99777.53;;;27.17
22269;BMP280;11303;50.772;19.670;2023-09-08T07:27:23;99767.47;;;27.43
22269;BMP280;11303;50.772;19.670;2023-09-08T07:29:25;99768.22;;;26.99
22269;BMP280;11303;50.772;19.670;2023-09-08T07:31:26;99769.56;;;27.04
22269;BMP280;11303;50.772;19.670;2023-09-08T07:33:28;99769.63;;;27.13
22269;BMP280;11303;50.772;19.670;2023-09-08T07:35:30;99772.19;;;27.17
22269;BMP280;11303;50.772;19.670;2023-09-08T07:37:31;99765.22;;;27.19
22269;BMP280;11303;50.772;19.670;2023-09-08T07:39:33;99771.56;;;26.90
22269;BMP280;11303;50.772;19.670;2023-09-08T07:41:36;99764.59;;;27.06
22269;BMP280;11303;50.772;19.670;2023-09-08T07:43:40;99768.63;;;27.42
22269;BMP280;11303;50.772;19.670;2023-09-08T07:45:42;99765.88;;;27.23
22269;BMP280;11303;50.772;19.670;2023-09-08T07:47:44;99764.25;;;27.26
22269;BMP280;11303;50.772;19.670;2023-09-08T07:49:48;99762.81;;;27.34
22269;BMP280;11303;50.772;19.670;2023-09-08T07:51:50;99760.16;;;27.34
22269;BMP280;11303;50.772;19.670;2023-09-08T07:53:53;99757.16;;;27.54
22269;BMP280;11303;50.772;19.670;2023-09-08T07:55:55;99767.25;;;27.59
22269;BMP280;11303;50.772;19.670;2023-09-08T07:57:57;99765.66;;;27.71
22269;BMP280;11303;50.772;19.670;2023-09-08T07:59:59;99763.25;;;28.04
22269;BMP280;11303;50.772;19.670;2023-09-08T08:02:01;99753.47;;;28.10
22269;BMP280;11303;50.772;19.670;2023-09-08T08:06:45;99755.78;;;28.48
22269;BMP280;11303;50.772;19.670;2023-09-08T08:08:48;99755.56;;;28.89
22269;BMP280;11303;50.772;19.670;2023-09-08T08:10:50;99750.69;;;28.96
22269;BMP280;11303;50.772;19.670;2023-09-08T08:12:52;99745.75;;;29.04
22269;BMP280;11303;50.772;19.670;2023-09-08T08:14:53;99747.00;;;28.76
22269;BMP280;11303;50.772;19.670;2023-09-08T08:16:55;99738.97;;;28.39
22269;BMP280;11303;50.772;19.670;2023-09-08T08:18:57;99737.19;;;28.36
22269;BMP280;11303;50.772;19.670;2023-09-08T08:20:58;99729.00;;;28.30
22269;BMP280;11303;50.772;19.670;2023-09-08T08:23:02;99733.78;;;28.26
22269;BMP280;11303;50.772;19.670;2023-09-08T08:25:05;99729.44;;;28.38
22269;BMP280;11303;50.772;19.670;2023-09-08T08:27:06;99728.56;;;28.59
22269;BMP280;11303;50.772;19.670;2023-09-08T08:29:08;99735.94;;;29.01
22269;BMP280;11303;50.772;19.670;2023-09-08T08:31:10;99733.88;;;28.96
22269;BMP280;11303;50.772;19.670;2023-09-08T08:33:11;99729.75;;;28.67
22269;BMP280;11303;50.772;19.670;2023-09-08T08:35:13;99727.41;;;28.60
22269;BMP280;11303;50.772;19.670;2023-09-08T08:37:15;99726.34;;;28.76
22269;BMP280;11303;50.772;19.670;2023-09-08T08:39:17;99730.53;;;29.19
22269;BMP280;11303;50.772;19.670;2023-09-08T08:41:18;99727.06;;;28.77
22269;BMP280;11303;50.772;19.670;2023-09-08T08:43:21;99723.03;;;28.90
22269;BMP280;11303;50.772;19.670;2023-09-08T08:45:24;99720.03;;;28.97
22269;BMP280;11303;50.772;19.670;2023-09-08T08:47:27;99712.97;;;28.58
22269;BMP280;11303;50.772;19.670;2023-09-08T08:49:31;99714.19;;;28.47
22269;BMP280;11303;50.772;19.670;2023-09-08T08:51:34;99717.44;;;28.61
22269;BMP280;11303;50.772;19.670;2023-09-08T08:53:37;99712.66;;;28.56
22269;BMP280;11303;50.772;19.670;2023-09-08T08:55:40;99712.41;;;28.44
22269;BMP280;11303;50.772;19.670;2023-09-08T08:57:42;99713.69;;;28.21
22269;BMP280;11303;50.772;19.670;2023-09-08T08:59:45;99705.25;;;28.14
22269;BMP280;11303;50.772;19.670;2023-09-08T09:01:46;99704.91;;;28.12
22269;BMP280;11303;50.772;19.670;2023-09-08T09:03:49;99698.56;;;28.46
22269;BMP280;11303;50.772;19.670;2023-09-08T09:05:51;99701.53;;;28.39
22269;BMP280;11303;50.772;19.670;2023-09-08T09:07:54;99704.03;;;28.24
22269;BMP280;11303;50.772;19.670;2023-09-08T09:09:59;99700.41;;;27.81
22269;BMP280;11303;50.772;19.670;2023-09-08T09:12:01;99691.88;;;27.64
22269;BMP280;11303;50.772;19.670;2023-09-08T09:14:04;99699.38;;;27.78
22269;BMP280;11303;50.772;19.670;2023-09-08T09:16:06;99683.06;;;27.95
22269;BMP280;11303;50.772;19.670;2023-09-08T09:18:12;99691.09;;;28.04
22269;BMP280;11303;50.772;19.670;2023-09-08T09:20:17;99683.88;;;28.14
22269;BMP280;11303;50.772;19.670;2023-09-08T09:22:21;99691.28;;;28.46
22269;BMP280;11303;50.772;19.670;2023-09-08T09:24:37;99695.47;;;28.47
22269;BMP280;11303;50.772;19.670;2023-09-08T09:26:42;99690.25;;;28.35
22269;BMP280;11303;50.772;19.670;2023-09-08T09:28:48;99695.00;;;28.12
22269;BMP280;11303;50.772;19.670;2023-09-08T09:30:52;99686.91;;;27.75
22269;BMP280;11303;50.772;19.670;2023-09-08T09:33:03;99692.69;;;27.83
22269;BMP280;11303;50.772;19.670;2023-09-08T09:35:05;99688.88;;;28.30
22269;BMP280;11303;50.772;19.670;2023-09-08T09:37:08;99691.75;;;28.54
22269;BMP280;11303;50.772;19.670;2023-09-08T09:39:12;99685.16;;;28.73
22269;BMP280;11303;50.772;19.670;2023-09-08T09:41:13;99686.34;;;28.91
22269;BMP280;11303;50.772;19.670;2023-09-08T09:43:16;99685.31;;;28.70
22269;BMP280;11303;50.772;19.670;2023-09-08T09:45:18;99687.88;;;28.55
22269;BMP280;11303;50.772;19.670;2023-09-08T09:47:21;99686.66;;;28.10
22269;BMP280;11303;50.772;19.670;2023-09-08T09:49:23;99682.94;;;27.98
22269;BMP280;11303;50.772;19.670;2023-09-08T09:51:28;99691.41;;;28.06
22269;BMP280;11303;50.772;19.670;2023-09-08T09:53:30;99685.19;;;28.46
22269;BMP280;11303;50.772;19.670;2023-09-08T09:55:32;99682.53;;;28.46
22269;BMP280;11303;50.772;19.670;2023-09-08T09:57:35;99679.25;;;28.33
22269;BMP280;11303;50.772;19.670;2023-09-08T09:59:37;99672.41;;;28.13
22269;BMP280;11303;50.772;19.670;2023-09-08T10:01:40;99675.41;;;28.34
22269;BMP280;11303;50.772;19.670;2023-09-08T10:03:42;99676.28;;;28.40
22269;BMP280;11303;50.772;19.670;2023-09-08T10:05:44;99680.69;;;28.80
22269;BMP280;11303;50.772;19.670;2023-09-08T10:07:49;99666.63;;;28.61
22269;BMP280;11303;50.772;19.670;2023-09-08T10:09:51;99681.63;;;28.49
22269;BMP280;11303;50.772;19.670;2023-09-08T10:11:54;99670.94;;;28.21
22269;BMP280;11303;50.772;19.670;2023-09-08T10:13:58;99662.03;;;28.24
22269;BMP280;11303;50.772;19.670;2023-09-08T10:16:00;99661.72;;;28.50
22269;BMP280;11303;50.772;19.670;2023-09-08T10:18:04;99661.69;;;28.59
22269;BMP280;11303;50.772;19.670;2023-09-08T10:20:08;99663.66;;;28.49
22269;BMP280;11303;50.772;19.670;2023-09-08T10:22:15;99668.25;;;28.03
22269;BMP280;11303;50.772;19.670;2023-09-08T10:24:24;99660.19;;;27.75
22269;BMP280;11303;50.772;19.670;2023-09-08T10:26:30;99654.00;;;27.97
22269;BMP280;11303;50.772;19.670;2023-09-08T10:28:32;99654.59;;;28.01
22269;BMP280;11303;50.772;19.670;2023-09-08T10:30:35;99660.97;;;28.03
22269;BMP280;11303;50.772;19.670;2023-09-08T10:32:38;99646.09;;;28.02
22269;BMP280;11303;50.772;19.670;2023-09-08T10:34:43;99646.44;;;28.14
22269;BMP280;11303;50.772;19.670;2023-09-08T10:36:46;99641.50;;;27.85
22269;BMP280;11303;50.772;19.670;2023-09-08T10:38:48;99634.66;;;27.84
22269;BMP280;11303;50.772;19.670;2023-09-08T10:40:53;99643.88;;;27.83
22269;BMP280;11303;50.772;19.670;2023-09-08T10:43:06;99641.47;;;27.66
22269;BMP280;11303;50.772;19.670;2023-09-08T10:45:16;99640.13;;;27.62
22269;BMP280;11303;50.772;19.670;2023-09-08T10:47:19;99630.50;;;27.73
22269;BMP280;11303;50.772;19.670;2023-09-08T10:49:21;99633.63;;;28.18
22269;BMP280;11303;50.772;19.670;2023-09-08T10:51:24;99626.66;;;28.57
22269;BMP280;11303;50.772;19.670;2023-09-08T10:53:26;99630.44;;;28.84
22269;BMP280;11303;50.772;19.670;2023-09-08T10:55:39;99629.78;;;28.56
22269;BMP280;11303;50.772;19.670;2023-09-08T10:57:45;99635.88;;;28.19
22269;BMP280;11303;50.772;19.670;2023-09-08T10:59:54;99620.16;;;28.12
22269;BMP280;11303;50.772;19.670;2023-09-08T11:01:56;99616.56;;;28.52
22269;BMP280;11303;50.772;19.670;2023-09-08T11:03:58;99620.88;;;28.49
22269;BMP280;11303;50.772;19.670;2023-09-08T11:06:03;99622.47;;;28.56
22269;BMP280;11303;50.772;19.670;2023-09-08T11:08:05;99618.16;;;28.59
22269;BMP280;11303;50.772;19.670;2023-09-08T11:10:07;99611.94;;;28.53
22269;BMP280;11303;50.772;19.670;2023-09-08T11:12:09;99623.09;;;28.60
22269;BMP280;11303;50.772;19.670;2023-09-08T11:14:11;99620.69;;;28.62
22269;BMP280;11303;50.772;19.670;2023-09-08T11:16:16;99620.25;;;28.64
22269;BMP280;11303;50.772;19.670;2023-09-08T11:18:30;99618.84;;;28.87
22269;BMP280;11303;50.772;19.670;2023-09-08T11:20:32;99609.75;;;28.93
22269;BMP280;11303;50.772;19.670;2023-09-08T11:22:34;99605.38;;;28.72
22269;BMP280;11303;50.772;19.670;2023-09-08T11:24:36;99611.19;;;28.52
22269;BMP280;11303;50.772;19.670;2023-09-08T11:26:38;99617.00;;;28.50
22269;BMP280;11303;50.772;19.670;2023-09-08T11:28:41;99609.19;;;28.80
22269;BMP280;11303;50.772;19.670;2023-09-08T11:30:45;99602.38;;;28.79
22269;BMP280;11303;50.772;19.670;2023-09-08T11:32:47;99610.63;;;28.48
22269;BMP280;11303;50.772;19.670;2023-09-08T11:34:49;99602.00;;;28.35
22269;BMP280;11303;50.772;19.670;2023-09-08T11:36:51;99606.19;;;28.45
22269;BMP280;11303;50.772;19.670;2023-09-08T11:38:54;99606.00;;;28.58
22269;BMP280;11303;50.772;19.670;2023-09-08T11:40:57;99598.22;;;28.78
22269;BMP280;11303;50.772;19.670;2023-09-08T11:42:59;99608.34;;;28.65